Time;durP1;ratioP1;P1;durP2;ratioP2;P2;SDS_P1;SDS_P2;PMS_P1;PMS_P2;Temp;Humidity;BMP_temperature;BMP_pressure;BME280_temperature;BME280_humidity;BME280_pressure;Samples;Min_cycle;Max_cycle;Signal;HPM_P1;HPM_P2
2023/05/14 00:00:41;;;;;;;8.77;7.90;;;13.40;98.90;;;;;;5089488;28;20497;-62
2023/05/14 00:03:09;;;;;;;9.60;8.33;;;13.40;98.80;;;;;;5073581;28;20963;-61
2023/05/14 00:05:36;;;;;;;9.50;8.50;;;13.30;98.60;;;;;;5078359;28;20478;-61
2023/05/14 00:08:03;;;;;;;9.60;8.60;;;13.30;98.70;;;;;;5073126;28;21203;-61
2023/05/14 00:10:30;;;;;;;8.70;7.90;;;13.30;98.90;;;;;;5070885;28;20485;-61
2023/05/14 00:12:57;;;;;;;11.10;9.63;;;13.20;98.90;;;;;;5074027;27;20524;-62
2023/05/14 00:15:24;;;;;;;11.27;10.17;;;13.00;99.10;;;;;;5073138;28;21030;-62
2023/05/14 00:17:51;;;;;;;9.70;8.80;;;13.00;99.30;;;;;;5070639;28;20967;-61
2023/05/14 00:20:19;;;;;;;11.60;8.97;;;13.00;99.30;;;;;;5070723;28;20474;-61
2023/05/14 00:22:46;;;;;;;10.23;9.30;;;13.00;98.60;;;;;;5066819;28;20477;-61
2023/05/14 00:25:13;;;;;;;14.80;8.57;;;13.00;98.80;;;;;;5087856;27;20903;-61
2023/05/14 00:27:40;;;;;;;10.60;9.27;;;13.00;98.80;;;;;;5078232;27;21048;-61
2023/05/14 00:30:07;;;;;;;8.30;7.50;;;12.90;98.80;;;;;;5098698;27;20480;-61
2023/05/14 00:32:34;;;;;;;10.53;8.27;;;12.80;98.60;;;;;;5097792;27;20473;-61
2023/05/14 00:35:03;;;;;;;11.03;9.50;;;12.70;99.00;;;;;;5073692;27;20481;-61
2023/05/14 00:37:31;;;;;;;11.23;9.73;;;12.60;99.20;;;;;;5079276;28;20683;-61
2023/05/14 00:39:58;;;;;;;10.70;9.60;;;12.60;99.20;;;;;;5078394;27;20483;-61
2023/05/14 00:42:26;;;;;;;11.23;8.90;;;12.60;98.90;;;;;;5083534;27;20584;-61
2023/05/14 00:44:52;;;;;;;10.87;9.77;;;12.60;99.30;;;;;;5089887;27;20484;-61
2023/05/14 00:47:20;;;;;;;8.87;8.07;;;12.60;99.20;;;;;;5082522;27;20484;-61
2023/05/14 00:49:46;;;;;;;11.73;10.63;;;12.60;98.80;;;;;;5084685;27;20935;-61
2023/05/14 00:52:14;;;;;;;11.63;8.90;;;12.50;98.90;;;;;;5064662;28;20474;-61
2023/05/14 00:54:42;;;;;;;10.10;9.20;;;12.40;99.20;;;;;;5070332;28;21450;-61
2023/05/14 00:57:09;;;;;;;10.37;8.90;;;12.40;99.40;;;;;;5071816;28;20486;-61
2023/05/14 00:59:36;;;;;;;12.20;9.73;;;12.40;99.10;;;;;;5075504;28;20466;-61
2023/05/14 01:02:05;;;;;;;11.10;8.90;;;12.40;99.30;;;;;;5075460;27;20477;-61
2023/05/14 01:04:33;;;;;;;12.10;9.80;;;12.40;99.20;;;;;;5087682;27;20477;-61
2023/05/14 01:07:09;;;;;;;10.60;9.50;;;12.40;99.20;;;;;;5073056;28;21162;-61
2023/05/14 01:09:42;;;;;;;23.70;9.53;;;12.40;98.70;;;;;;5082455;27;20476;-61
2023/05/14 01:12:18;;;;;;;10.70;9.60;;;12.40;98.70;;;;;;5087411;27;20492;-61
2023/05/14 01:14:53;;;;;;;11.70;9.73;;;12.40;99.00;;;;;;5092137;27;20504;-61
2023/05/14 01:17:21;;;;;;;10.60;8.30;;;12.30;99.00;;;;;;5071502;28;20481;-61
2023/05/14 01:19:50;;;;;;;8.90;7.70;;;12.30;98.80;;;;;;5085415;27;20538;-61
2023/05/14 01:22:18;;;;;;;10.10;9.20;;;12.20;99.10;;;;;;5066581;27;20480;-61
2023/05/14 01:24:46;;;;;;;12.63;11.00;;;12.10;99.30;;;;;;5075493;27;20476;-61
2023/05/14 01:27:19;;;;;;;10.87;9.80;;;12.10;99.30;;;;;;5072005;28;20555;-60
2023/05/14 01:29:53;;;;;;;10.53;9.60;;;12.10;99.40;;;;;;5095697;27;20477;-61
2023/05/14 01:32:23;;;;;;;10.30;8.77;;;12.20;99.30;;;;;;5086841;27;20483;-61
2023/05/14 01:34:50;;;;;;;11.97;9.63;;;12.20;98.70;;;;;;5065023;28;20474;-61
2023/05/14 01:37:20;;;;;;;10.53;9.43;;;12.20;99.10;;;;;;5071411;28;20486;-61
2023/05/14 01:39:48;;;;;;;13.57;9.23;;;12.20;99.00;;;;;;5091976;27;20484;-61
2023/05/14 01:42:15;;;;;;;11.20;9.50;;;12.20;99.10;;;;;;5081577;27;20472;-61
2023/05/14 01:44:46;;;;;;;12.77;9.20;;;12.10;98.80;;;;;;5085021;27;20537;-61
2023/05/14 01:47:13;;;;;;;9.80;8.80;;;12.10;99.10;;;;;;5081818;27;20481;-61
2023/05/14 01:49:40;;;;;;;10.10;8.97;;;12.00;98.90;;;;;;5068042;28;20690;-61
2023/05/14 01:52:07;;;;;;;14.70;10.30;;;12.00;98.80;;;;;;5080889;27;21050;-60
2023/05/14 01:54:36;;;;;;;14.70;10.87;;;12.00;98.50;;;;;;5085922;27;20474;-62
2023/05/14 01:57:02;;;;;;;10.73;9.60;;;12.00;98.70;;;;;;5085747;28;20485;-61
2023/05/14 01:59:29;;;;;;;11.10;10.00;;;11.90;98.90;;;;;;5077128;28;20895;-61
2023/05/14 02:01:56;;;;;;;10.60;9.60;;;11.90;98.60;;;;;;5087177;27;20485;-61
2023/05/14 02:04:23;;;;;;;15.60;9.43;;;11.90;98.80;;;;;;5070019;27;20564;-61
2023/05/14 02:07:20;;;;;;;14.20;8.63;;;11.90;98.70;;;;;;5093008;27;20486;-61
2023/05/14 02:09:48;;;;;;;10.63;9.17;;;11.90;98.60;;;;;;5068602;28;20475;-60
2023/05/14 02:12:15;;;;;;;11.70;10.50;;;11.80;98.50;;;;;;5066923;28;20482;-60
2023/05/14 02:14:41;;;;;;;9.97;8.97;;;11.80;99.00;;;;;;5068514;28;20482;-60
2023/05/14 02:17:08;;;;;;;12.90;10.40;;;11.80;98.80;;;;;;5070394;28;20486;-60
2023/05/14 02:19:35;;;;;;;12.03;9.00;;;11.60;98.70;;;;;;5088163;27;20486;-60
2023/05/14 02:22:02;;;;;;;13.27;9.03;;;11.60;99.00;;;;;;5092752;27;20481;-60
2023/05/14 02:24:29;;;;;;;10.97;9.60;;;11.60;98.90;;;;;;5075383;28;20474;-60
2023/05/14 02:26:59;;;;;;;9.93;8.93;;;11.60;99.40;;;;;;5068505;27;20546;-61
2023/05/14 02:29:26;;;;;;;9.70;8.63;;;11.60;99.10;;;;;;5085294;27;20889;-61
2023/05/14 02:31:53;;;;;;;11.33;10.20;;;11.70;99.30;;;;;;5069816;28;20872;-61
2023/05/14 02:34:20;;;;;;;14.37;9.47;;;11.70;99.30;;;;;;5073274;27;20495;-61
2023/05/14 02:36:47;;;;;;;13.53;10.73;;;11.70;99.40;;;;;;5077308;27;20501;-61
2023/05/14 02:39:14;;;;;;;10.40;9.30;;;11.70;99.20;;;;;;5092671;27;22334;-61
2023/05/14 02:41:40;;;;;;;14.50;9.77;;;11.60;99.20;;;;;;5078286;27;20480;-61
2023/05/14 02:44:09;;;;;;;10.43;9.33;;;11.60;99.60;;;;;;5080571;27;20698;-61
2023/05/14 02:46:36;;;;;;;10.50;9.50;;;11.60;99.10;;;;;;5097471;27;20505;-61
2023/05/14 02:49:03;;;;;;;12.27;10.40;;;11.70;99.30;;;;;;5062143;27;21030;-61
2023/05/14 02:51:30;;;;;;;10.00;8.90;;;11.60;99.30;;;;;;5090729;27;20514;-61
2023/05/14 02:53:57;;;;;;;12.90;10.60;;;11.70;99.20;;;;;;5075175;28;20501;-61
2023/05/14 02:56:25;;;;;;;12.63;10.30;;;11.70;98.90;;;;;;5078019;27;20482;-61
2023/05/14 02:58:52;;;;;;;13.50;9.10;;;11.70;99.10;;;;;;5083226;27;20567;-61
2023/05/14 03:01:20;;;;;;;12.10;10.80;;;11.70;99.10;;;;;;5076475;28;20484;-60
2023/05/14 03:03:47;;;;;;;9.93;9.00;;;11.70;99.00;;;;;;5094190;27;20521;-60
2023/05/14 03:06:14;;;;;;;15.07;12.30;;;11.60;98.60;;;;;;5086205;27;20467;-61
2023/05/14 03:08:41;;;;;;;13.87;9.17;;;11.60;99.00;;;;;;5065316;27;20477;-61
2023/05/14 03:11:07;;;;;;;10.03;9.13;;;11.60;98.90;;;;;;5077282;28;21018;-61
2023/05/14 03:13:34;;;;;;;12.70;10.10;;;11.50;98.80;;;;;;5098733;27;20476;-61
2023/05/14 03:16:01;;;;;;;11.50;9.87;;;11.50;99.00;;;;;;5086711;27;20998;-61
2023/05/14 03:18:29;;;;;;;10.50;9.00;;;11.40;99.00;;;;;;5069588;27;20515;-61
2023/05/14 03:20:56;;;;;;;12.17;9.00;;;11.40;99.00;;;;;;5094076;27;20560;-61
2023/05/14 03:23:23;;;;;;;10.83;8.97;;;11.40;98.60;;;;;;5090905;28;20856;-61
2023/05/14 03:25:50;;;;;;;14.13;9.33;;;11.40;98.60;;;;;;5071732;28;20504;-61
2023/05/14 03:28:17;;;;;;;10.83;9.40;;;11.40;98.80;;;;;;5057575;27;20547;-61
2023/05/14 03:30:44;;;;;;;10.40;9.37;;;11.30;98.80;;;;;;5088604;27;20996;-61
2023/05/14 03:33:11;;;;;;;13.23;11.30;;;11.30;98.40;;;;;;5096140;27;20472;-61
2023/05/14 03:35:39;;;;;;;16.13;10.80;;;11.30;98.60;;;;;;5097774;28;20988;-60
2023/05/14 03:38:06;;;;;;;9.67;8.77;;;11.30;98.60;;;;;;5091218;27;20465;-61
2023/05/14 03:40:33;;;;;;;14.70;8.93;;;11.50;98.50;;;;;;5090680;27;20888;-61
2023/05/14 03:43:00;;;;;;;12.80;8.43;;;11.20;98.60;;;;;;5088192;28;20765;-60
2023/05/14 03:45:27;;;;;;;12.40;9.13;;;11.20;98.60;;;;;;5085419;28;20474;-60
2023/05/14 03:47:54;;;;;;;9.80;8.80;;;11.20;98.60;;;;;;5081939;28;20483;-60
2023/05/14 03:50:24;;;;;;;12.23;8.53;;;11.10;98.50;;;;;;5081544;28;20908;-61
2023/05/14 03:52:52;;;;;;;10.87;9.70;;;11.10;98.70;;;;;;5078860;27;20478;-60
2023/05/14 03:55:19;;;;;;;11.63;9.40;;;11.10;98.80;;;;;;5082767;28;20802;-61
2023/05/14 03:57:46;;;;;;;14.40;10.13;;;11.00;99.10;;;;;;5097034;27;20477;-60
2023/05/14 04:00:13;;;;;;;14.80;9.50;;;11.00;99.20;;;;;;5089587;27;20487;-60
2023/05/14 04:02:40;;;;;;;16.70;9.57;;;11.00;99.10;;;;;;5095018;27;20477;-61
2023/05/14 04:05:08;;;;;;;17.03;9.40;;;11.10;99.10;;;;;;5075769;28;20481;-60
2023/05/14 04:07:35;;;;;;;9.00;8.20;;;11.10;99.40;;;;;;5105889;27;20479;-60
2023/05/14 04:10:04;;;;;;;10.30;9.30;;;11.10;99.30;;;;;;5093397;28;20480;-60
2023/05/14 04:12:31;;;;;;;9.73;8.80;;;11.10;98.80;;;;;;5085241;28;20481;-60
2023/05/14 04:14:58;;;;;;;9.60;8.60;;;11.10;99.10;;;;;;5083546;28;20484;-61
2023/05/14 04:17:25;;;;;;;9.53;8.63;;;11.10;98.80;;;;;;5072968;28;20475;-61
2023/05/14 04:19:52;;;;;;;10.67;9.40;;;11.10;99.10;;;;;;5077833;28;20477;-60
2023/05/14 04:22:19;;;;;;;11.10;9.87;;;11.10;98.80;;;;;;5090487;28;20483;-60
2023/05/14 04:24:46;;;;;;;13.07;9.90;;;11.10;98.90;;;;;;5069431;27;20484;-60
2023/05/14 04:27:21;;;;;;;10.43;9.33;;;11.10;99.20;;;;;;5097558;27;20572;-60
2023/05/14 04:29:47;;;;;;;11.10;9.90;;;11.20;99.20;;;;;;5071344;28;20556;-60
2023/05/14 04:32:14;;;;;;;10.27;9.23;;;11.10;99.20;;;;;;5057537;28;20808;-60
2023/05/14 04:34:41;;;;;;;9.50;8.50;;;11.20;98.80;;;;;;5094690;28;21066;-60
2023/05/14 04:37:08;;;;;;;11.40;9.50;;;11.20;99.20;;;;;;5049267;27;20477;-61
2023/05/14 04:39:36;;;;;;;11.00;9.50;;;11.20;99.20;;;;;;5096041;27;20845;-60
2023/05/14 04:42:03;;;;;;;9.83;8.93;;;11.20;99.10;;;;;;5074521;28;20470;-61
2023/05/14 04:44:31;;;;;;;9.87;8.87;;;11.20;99.30;;;;;;5077139;28;20557;-61
2023/05/14 04:46:58;;;;;;;13.17;10.07;;;11.30;99.50;;;;;;5098240;28;20472;-61
2023/05/14 04:49:25;;;;;;;11.70;10.40;;;11.40;99.70;;;;;;5086537;28;20473;-60
2023/05/14 04:51:52;;;;;;;15.80;12.20;;;11.40;99.90;;;;;;5099109;28;20480;-61
2023/05/14 04:54:20;;;;;;;12.03;10.80;;;11.50;99.90;;;;;;5071777;28;20996;-61
2023/05/14 04:56:47;;;;;;;14.07;11.23;;;11.60;99.90;;;;;;5065477;28;20561;-60
2023/05/14 04:59:15;;;;;;;16.53;11.20;;;11.70;99.90;;;;;;5066927;28;20897;-61
2023/05/14 05:01:44;;;;;;;14.60;11.53;;;11.70;99.90;;;;;;5066927;28;20638;-60
2023/05/14 05:04:10;;;;;;;14.67;11.17;;;11.80;99.90;;;;;;5084803;28;20953;-60
2023/05/14 05:06:37;;;;;;;12.30;11.03;;;11.90;99.90;;;;;;5091410;28;20762;-61
2023/05/14 05:09:04;;;;;;;14.67;12.27;;;12.00;99.90;;;;;;5073277;28;20474;-61
2023/05/14 05:11:31;;;;;;;14.13;12.37;;;12.10;99.90;;;;;;5071081;28;21186;-60
2023/05/14 05:13:58;;;;;;;15.90;13.47;;;12.20;99.90;;;;;;5067183;28;20492;-61
2023/05/14 05:16:25;;;;;;;16.83;12.67;;;12.30;99.90;;;;;;5082181;28;20474;-61
2023/05/14 05:18:53;;;;;;;14.40;12.77;;;12.50;99.90;;;;;;5067879;28;20469;-61
2023/05/14 05:21:20;;;;;;;14.60;11.63;;;12.60;99.90;;;;;;5086218;28;20488;-61
2023/05/14 05:23:46;;;;;;;12.40;10.83;;;12.70;99.90;;;;;;5093620;27;20558;-61
2023/05/14 05:26:13;;;;;;;19.17;11.90;;;12.90;99.90;;;;;;5094721;27;20487;-61
2023/05/14 05:28:40;;;;;;;12.47;11.17;;;13.00;99.90;;;;;;5089210;27;20997;-61
2023/05/14 05:31:07;;;;;;;13.27;11.87;;;13.00;99.90;;;;;;5075647;28;20517;-61
2023/05/14 05:33:34;;;;;;;13.03;11.70;;;13.00;99.90;;;;;;5081431;28;20578;-61
2023/05/14 05:36:02;;;;;;;13.10;11.90;;;13.00;99.90;;;;;;5071606;28;20998;-61
2023/05/14 05:38:29;;;;;;;13.13;11.13;;;13.00;99.90;;;;;;5081109;28;20490;-60
2023/05/14 05:40:56;;;;;;;16.40;13.00;;;13.10;99.90;;;;;;5080206;28;20493;-60
2023/05/14 05:43:23;;;;;;;12.77;11.47;;;13.20;99.90;;;;;;5076706;27;20475;-60
2023/05/14 05:45:50;;;;;;;14.10;11.93;;;13.30;99.90;;;;;;5082893;28;21034;-60
2023/05/14 05:48:16;;;;;;;13.40;12.00;;;13.40;99.90;;;;;;5090529;27;20477;-60
2023/05/14 05:50:46;;;;;;;13.23;11.93;;;13.50;99.90;;;;;;5100000;27;20473;-60
2023/05/14 05:53:15;;;;;;;12.33;11.03;;;13.60;99.90;;;;;;5088287;28;20481;-60
2023/05/14 05:55:42;;;;;;;12.93;11.63;;;13.70;99.90;;;;;;5076834;28;20978;-60
2023/05/14 05:58:09;;;;;;;12.77;11.43;;;13.90;99.90;;;;;;5081393;28;20478;-60
2023/05/14 06:00:36;;;;;;;12.10;10.90;;;14.00;99.90;;;;;;5074831;28;20474;-60
2023/05/14 06:03:02;;;;;;;12.23;11.10;;;14.10;99.90;;;;;;5076361;28;20590;-60
2023/05/14 06:05:29;;;;;;;13.33;10.63;;;14.20;99.90;;;;;;5094582;27;20477;-60
2023/05/14 06:07:56;;;;;;;13.87;12.00;;;14.20;99.90;;;;;;5090733;27;20488;-60
2023/05/14 06:10:24;;;;;;;15.33;11.90;;;14.30;99.90;;;;;;5099036;27;20481;-60
2023/05/14 06:12:51;;;;;;;14.10;12.60;;;14.30;99.90;;;;;;5094593;28;20470;-60
2023/05/14 06:15:18;;;;;;;13.47;11.90;;;14.30;99.90;;;;;;5096703;28;20473;-60
2023/05/14 06:17:45;;;;;;;20.93;12.80;;;14.30;99.90;;;;;;5076829;27;20470;-60
2023/05/14 06:20:13;;;;;;;12.70;11.50;;;14.30;99.90;;;;;;5083640;28;20534;-60
2023/05/14 06:22:42;;;;;;;12.10;10.90;;;14.40;99.90;;;;;;5077097;28;20474;-60
2023/05/14 06:25:09;;;;;;;13.10;11.80;;;14.40;99.90;;;;;;5080471;28;20615;-59
2023/05/14 06:27:38;;;;;;;12.57;11.27;;;14.40;99.90;;;;;;5070939;28;21026;-60
2023/05/14 06:30:05;;;;;;;18.00;12.07;;;14.40;99.90;;;;;;5069278;28;20490;-60
2023/05/14 06:32:32;;;;;;;13.10;11.47;;;14.50;99.90;;;;;;5057409;27;20525;-60
2023/05/14 06:34:59;;;;;;;13.20;11.90;;;14.50;99.90;;;;;;5106974;27;21254;-61
2023/05/14 06:37:26;;;;;;;12.60;11.30;;;14.60;99.90;;;;;;5094929;27;20484;-60
2023/05/14 06:39:53;;;;;;;12.50;11.30;;;14.70;99.90;;;;;;5117702;27;20485;-60
2023/05/14 06:42:20;;;;;;;15.50;11.60;;;14.80;99.90;;;;;;5094707;28;20489;-60
2023/05/14 06:44:48;;;;;;;20.83;13.17;;;14.90;99.90;;;;;;5079662;28;20990;-61
2023/05/14 06:47:15;;;;;;;17.03;13.73;;;15.10;99.90;;;;;;5083405;28;20832;-61
2023/05/14 06:49:42;;;;;;;14.93;11.17;;;15.40;99.90;;;;;;5086843;27;20500;-61
2023/05/14 06:52:08;;;;;;;11.87;10.40;;;15.60;99.90;;;;;;5072492;28;20490;-60
2023/05/14 06:54:35;;;;;;;11.00;9.90;;;15.90;99.90;;;;;;5077305;28;20489;-61
2023/05/14 06:57:02;;;;;;;11.47;10.30;;;16.30;99.90;;;;;;5095309;28;20491;-61
2023/05/14 06:59:29;;;;;;;11.80;9.40;;;16.60;99.90;;;;;;5078233;27;20478;-61
2023/05/14 07:01:57;;;;;;;10.73;9.63;;;17.00;99.90;;;;;;5097309;27;20500;-62
2023/05/14 07:04:24;;;;;;;9.13;8.30;;;17.30;99.80;;;;;;5086331;28;20492;-62
2023/05/14 07:06:52;;;;;;;9.70;8.90;;;17.60;99.10;;;;;;5083092;28;21004;-62
2023/05/14 07:09:19;;;;;;;10.37;9.30;;;17.80;98.90;;;;;;5082734;27;20488;-62
2023/05/14 07:11:46;;;;;;;11.47;10.27;;;18.20;98.80;;;;;;5090375;27;20488;-62
2023/05/14 07:14:13;;;;;;;8.83;7.93;;;18.30;98.00;;;;;;5088188;28;20482;-62
2023/05/14 07:16:41;;;;;;;10.20;9.10;;;18.40;96.90;;;;;;5073089;28;20481;-62
2023/05/14 07:19:09;;;;;;;11.87;9.57;;;18.50;97.10;;;;;;5096120;27;20566;-63
2023/05/14 07:21:35;;;;;;;10.00;9.03;;;18.60;97.50;;;;;;5072576;28;21012;-62
2023/05/14 07:24:03;;;;;;;12.23;10.47;;;18.70;96.90;;;;;;5085416;28;20486;-62
2023/05/14 07:26:30;;;;;;;10.70;8.83;;;18.90;96.40;;;;;;5074332;28;20536;-63
2023/05/14 07:28:57;;;;;;;10.70;9.00;;;18.90;96.70;;;;;;5072557;28;20491;-62
2023/05/14 07:31:23;;;;;;;9.93;9.00;;;19.00;96.70;;;;;;5077021;27;20493;-63
2023/05/14 07:33:50;;;;;;;9.03;8.20;;;19.20;96.20;;;;;;5098962;27;20473;-61
2023/05/14 07:36:18;;;;;;;8.90;8.00;;;19.20;95.70;;;;;;5070527;27;21193;-61
2023/05/14 07:38:45;;;;;;;9.23;8.33;;;19.40;97.10;;;;;;5107102;27;20482;-60
2023/05/14 07:41:12;;;;;;;8.40;7.60;;;19.70;96.20;;;;;;5087696;27;20475;-61
2023/05/14 07:43:40;;;;;;;9.03;8.23;;;19.90;96.00;;;;;;5105499;27;21084;-61
2023/05/14 07:46:06;;;;;;;9.77;8.03;;;20.00;96.60;;;;;;5074525;27;20545;-61
2023/05/14 07:48:33;;;;;;;12.50;8.00;;;20.20;95.50;;;;;;5076536;28;20470;-61
2023/05/14 07:51:00;;;;;;;9.20;7.97;;;20.50;95.60;;;;;;5098751;28;20485;-62
2023/05/14 07:53:28;;;;;;;9.07;7.33;;;20.50;95.40;;;;;;5093726;27;20814;-62
2023/05/14 07:55:55;;;;;;;8.00;7.00;;;20.80;95.60;;;;;;5088295;27;20482;-62
2023/05/14 07:58:23;;;;;;;9.57;8.40;;;21.00;94.80;;;;;;5073833;28;20490;-61
2023/05/14 08:00:50;;;;;;;9.63;8.13;;;21.20;94.90;;;;;;5080271;28;20483;-63
2023/05/14 08:03:17;;;;;;;8.70;7.90;;;21.50;94.30;;;;;;5092519;27;20996;-62
2023/05/14 08:05:44;;;;;;;7.90;7.07;;;21.50;94.60;;;;;;5081492;28;20499;-63
2023/05/14 08:08:12;;;;;;;8.00;7.00;;;21.70;93.50;;;;;;5109114;28;21158;-63
2023/05/14 08:10:40;;;;;;;7.30;6.60;;;21.90;94.30;;;;;;5073620;28;20545;-63
2023/05/14 08:13:07;;;;;;;7.23;6.53;;;21.90;94.10;;;;;;5078758;28;20670;-63
2023/05/14 08:15:34;;;;;;;6.80;6.23;;;21.90;92.50;;;;;;5074497;28;20527;-63
2023/05/14 08:18:02;;;;;;;6.80;6.20;;;21.90;92.40;;;;;;5078298;28;20457;-62
2023/05/14 08:20:29;;;;;;;6.73;5.97;;;21.90;91.90;;;;;;5068433;28;20565;-63
2023/05/14 08:22:56;;;;;;;7.90;6.80;;;21.90;92.30;;;;;;5079162;28;20476;-63
2023/05/14 08:25:23;;;;;;;6.50;5.17;;;22.10;92.00;;;;;;5075767;28;20461;-63
2023/05/14 08:27:53;;;;;;;5.90;5.40;;;22.10;92.70;;;;;;5065313;28;20476;-63
2023/05/14 08:30:20;;;;;;;9.77;6.90;;;22.00;91.40;;;;;;5084087;27;20474;-63
2023/05/14 08:32:47;;;;;;;6.00;5.50;;;22.20;92.50;;;;;;5082246;28;20468;-63
2023/05/14 08:35:13;;;;;;;11.87;6.70;;;22.20;91.50;;;;;;5081287;28;21294;-62
2023/05/14 08:37:40;;;;;;;8.57;5.37;;;22.10;91.20;;;;;;5073865;28;20487;-63
2023/05/14 08:40:09;;;;;;;7.83;5.90;;;22.20;91.20;;;;;;5077748;28;20465;-63
2023/05/14 08:42:39;;;;;;;7.30;6.60;;;22.20;91.50;;;;;;5066070;28;20449;-63
2023/05/14 08:45:13;;;;;;;6.33;5.10;;;22.30;92.00;;;;;;5074668;28;20853;-63
2023/05/14 08:47:40;;;;;;;4.80;4.40;;;22.30;91.80;;;;;;5071671;28;20455;-63
2023/05/14 08:50:08;;;;;;;5.90;5.33;;;22.40;91.40;;;;;;5075031;28;20486;-63
2023/05/14 08:52:35;;;;;;;5.60;5.20;;;22.50;91.70;;;;;;5074817;28;20482;-63
2023/05/14 08:55:05;;;;;;;7.07;5.73;;;22.60;90.80;;;;;;5097905;27;20475;-62
2023/05/14 08:57:33;;;;;;;5.80;5.20;;;22.70;90.30;;;;;;5079120;28;20847;-63
2023/05/14 09:00:00;;;;;;;10.60;6.10;;;22.80;91.30;;;;;;5063501;27;20453;-63
2023/05/14 09:02:30;;;;;;;5.67;5.17;;;22.90;90.60;;;;;;5098909;27;20528;-63
2023/05/14 09:04:59;;;;;;;6.10;5.50;;;22.70;90.40;;;;;;5066464;27;20527;-63
2023/05/14 09:07:26;;;;;;;6.47;5.10;;;22.70;90.40;;;;;;5090603;27;20455;-64
2023/05/14 09:09:53;;;;;;;6.27;5.67;;;22.70;90.70;;;;;;5094946;27;20451;-63
2023/05/14 09:12:21;;;;;;;6.13;5.53;;;22.90;91.30;;;;;;5077860;27;20451;-63
2023/05/14 09:14:50;;;;;;;6.90;5.43;;;22.90;90.50;;;;;;5070611;27;20497;-63
2023/05/14 09:17:17;;;;;;;6.10;5.50;;;22.90;90.50;;;;;;5075742;28;20474;-63
2023/05/14 09:19:47;;;;;;;5.27;4.77;;;22.70;89.70;;;;;;5074495;28;20477;-63
2023/05/14 09:22:16;;;;;;;6.90;4.80;;;22.50;89.70;;;;;;5066523;28;20464;-63
2023/05/14 09:24:43;;;;;;;9.13;5.30;;;22.30;90.20;;;;;;5065296;28;20467;-63
2023/05/14 09:27:18;;;;;;;6.23;5.63;;;22.30;91.40;;;;;;5060676;28;21037;-63
2023/05/14 09:29:44;;;;;;;8.50;5.50;;;22.80;90.90;;;;;;5105147;27;20455;-63
2023/05/14 09:32:11;;;;;;;6.37;5.13;;;22.80;90.40;;;;;;5081699;27;20816;-62
2023/05/14 09:34:39;;;;;;;6.43;5.43;;;22.90;89.00;;;;;;5069203;27;20453;-63
2023/05/14 09:37:09;;;;;;;5.27;4.77;;;23.00;90.40;;;;;;5072044;28;20745;-62
2023/05/14 09:39:38;;;;;;;5.93;5.43;;;23.20;90.50;;;;;;5093524;28;20472;-63
2023/05/14 09:42:06;;;;;;;4.40;4.10;;;23.30;91.20;;;;;;5094063;28;20492;-63
2023/05/14 09:44:35;;;;;;;5.87;5.03;;;23.60;90.50;;;;;;5079508;28;20479;-63
2023/05/14 09:47:03;;;;;;;5.27;4.60;;;23.50;85.90;;;;;;5078880;28;20479;-64
2023/05/14 09:49:29;;;;;;;5.00;4.60;;;23.50;86.40;;;;;;5085418;28;21131;-64
2023/05/14 09:51:56;;;;;;;5.10;4.70;;;23.20;87.30;;;;;;5070405;28;20476;-64
2023/05/14 09:54:26;;;;;;;6.17;5.57;;;23.00;86.30;;;;;;5101493;27;20464;-63
2023/05/14 09:56:53;;;;;;;6.73;5.50;;;22.70;89.10;;;;;;5094287;28;20466;-63
2023/05/14 09:59:20;;;;;;;7.20;6.40;;;22.50;90.00;;;;;;5090361;28;20929;-63
2023/05/14 10:01:47;;;;;;;6.07;5.57;;;22.40;89.90;;;;;;5085920;28;20660;-63
2023/05/14 10:04:14;;;;;;;6.63;5.93;;;22.20;88.90;;;;;;5089574;28;21054;-63
2023/05/14 10:06:44;;;;;;;5.90;5.30;;;21.90;88.00;;;;;;5082070;28;20457;-63
2023/05/14 10:09:13;;;;;;;5.77;5.27;;;21.70;90.00;;;;;;5082228;28;20481;-63
2023/05/14 10:11:45;;;;;;;6.50;5.17;;;21.60;89.00;;;;;;5087551;27;20493;-63
2023/05/14 10:14:17;;;;;;;4.73;4.23;;;21.50;90.00;;;;;;5093776;27;20642;-63
2023/05/14 10:16:48;;;;;;;5.50;5.10;;;21.50;88.60;;;;;;5079366;28;20461;-63
2023/05/14 10:19:17;;;;;;;5.83;5.13;;;21.80;90.90;;;;;;5079373;28;20534;-63
2023/05/14 10:21:47;;;;;;;4.73;4.37;;;22.20;90.20;;;;;;5081024;28;20502;-63
2023/05/14 10:24:15;;;;;;;5.87;5.37;;;22.40;88.60;;;;;;5077151;28;20457;-64
2023/05/14 10:26:43;;;;;;;6.43;4.97;;;22.60;88.60;;;;;;5078120;28;20825;-64
2023/05/14 10:29:10;;;;;;;5.77;5.27;;;22.30;84.80;;;;;;5071731;28;20964;-64
2023/05/14 10:31:48;;;;;;;4.77;4.37;;;22.30;86.40;;;;;;5083337;27;20508;-63
2023/05/14 10:34:33;;;;;;;4.83;4.30;;;22.60;86.60;;;;;;5099101;27;20836;-63
2023/05/14 10:37:01;;;;;;;6.50;3.93;;;22.80;90.00;;;;;;5089299;27;20452;-64
2023/05/14 10:39:42;;;;;;;3.87;3.57;;;23.20;86.50;;;;;;5083465;28;20474;-64
2023/05/14 10:42:11;;;;;;;3.83;3.53;;;22.90;85.20;;;;;;5079774;27;20448;-63
2023/05/14 10:44:48;;;;;;;6.20;5.13;;;23.10;84.90;;;;;;5075622;27;20474;-63
2023/05/14 10:47:16;;;;;;;5.30;4.90;;;22.90;84.30;;;;;;5088823;27;20466;-63
2023/05/14 10:49:47;;;;;;;4.33;4.03;;;22.90;88.10;;;;;;5091668;27;20795;-63
2023/05/14 10:52:17;;;;;;;5.17;4.67;;;23.10;88.80;;;;;;5076864;27;20474;-63
2023/05/14 10:54:49;;;;;;;4.27;3.87;;;23.30;88.70;;;;;;5094740;27;20481;-63
2023/05/14 10:57:18;;;;;;;4.83;3.93;;;23.50;87.10;;;;;;5068181;28;20480;-63
2023/05/14 10:59:46;;;;;;;4.70;4.40;;;23.70;85.80;;;;;;5083771;27;20584;-63
2023/05/14 11:02:21;;;;;;;5.07;4.67;;;23.80;86.90;;;;;;5069885;27;20499;-63
2023/05/14 11:04:57;;;;;;;4.20;3.80;;;24.00;86.40;;;;;;5095969;27;21245;-64
2023/05/14 11:07:27;;;;;;;4.57;4.27;;;23.80;82.90;;;;;;5085359;28;20548;-64
2023/05/14 11:09:57;;;;;;;4.70;4.30;;;24.00;85.00;;;;;;5093189;27;21357;-64
2023/05/14 11:12:26;;;;;;;6.07;5.47;;;23.90;85.10;;;;;;5090288;27;20464;-63
2023/05/14 11:14:53;;;;;;;4.30;4.00;;;23.70;84.20;;;;;;5073097;28;20551;-63
2023/05/14 11:17:20;;;;;;;4.87;4.47;;;23.70;84.80;;;;;;5090941;27;20452;-63
2023/05/14 11:19:47;;;;;;;4.80;4.40;;;23.70;87.10;;;;;;5077356;27;20466;-63
2023/05/14 11:22:14;;;;;;;5.03;4.63;;;23.40;83.60;;;;;;5098204;27;20496;-63
2023/05/14 11:24:41;;;;;;;6.70;3.93;;;23.10;84.00;;;;;;5082725;27;20446;-63
2023/05/14 11:27:08;;;;;;;5.20;4.80;;;22.90;85.10;;;;;;5073145;27;20481;-63
2023/05/14 11:29:37;;;;;;;4.50;4.10;;;22.60;84.90;;;;;;5089174;27;20481;-63
2023/05/14 11:32:05;;;;;;;4.83;4.43;;;22.40;85.70;;;;;;5081995;28;20482;-63
2023/05/14 11:34:33;;;;;;;3.93;3.63;;;22.30;85.80;;;;;;5098150;27;20790;-64
2023/05/14 11:37:03;;;;;;;5.10;4.60;;;22.30;85.80;;;;;;5082053;28;21363;-63
2023/05/14 11:39:31;;;;;;;4.20;3.70;;;22.30;86.20;;;;;;5095822;27;20965;-63
2023/05/14 11:41:58;;;;;;;4.50;4.20;;;22.30;87.20;;;;;;5087141;28;20951;-63
2023/05/14 11:44:28;;;;;;;4.07;3.77;;;22.30;84.70;;;;;;5068495;28;20828;-63
2023/05/14 11:46:58;;;;;;;5.33;4.93;;;22.20;85.30;;;;;;5083290;27;20467;-63
2023/05/14 11:49:25;;;;;;;4.47;4.07;;;22.30;85.80;;;;;;5092659;28;20477;-63
2023/05/14 11:51:57;;;;;;;4.67;4.27;;;22.20;85.10;;;;;;5075373;28;20565;-63
2023/05/14 11:54:26;;;;;;;4.40;4.03;;;22.10;84.80;;;;;;5071046;28;20482;-63
2023/05/14 11:56:54;;;;;;;4.00;3.70;;;22.40;85.40;;;;;;5076592;28;20454;-63
2023/05/14 11:59:21;;;;;;;3.90;3.60;;;22.40;84.00;;;;;;5071440;28;20465;-63
2023/05/14 12:01:50;;;;;;;3.93;3.63;;;22.60;86.60;;;;;;5081629;28;20958;-63
2023/05/14 12:04:21;;;;;;;12.03;5.07;;;22.70;85.50;;;;;;5078522;28;20489;-63
2023/05/14 12:06:48;;;;;;;9.53;4.80;;;22.70;86.40;;;;;;5077779;27;20528;-63
2023/05/14 12:09:16;;;;;;;5.17;4.07;;;22.80;87.10;;;;;;5073394;28;20976;-63
2023/05/14 12:11:43;;;;;;;4.77;4.30;;;23.10;86.30;;;;;;5069665;27;20460;-63
2023/05/14 12:14:16;;;;;;;4.20;3.90;;;23.10;83.60;;;;;;5105071;27;20459;-63
2023/05/14 12:16:45;;;;;;;4.20;3.70;;;23.40;87.20;;;;;;5090347;27;20477;-63
2023/05/14 12:19:14;;;;;;;4.07;3.77;;;23.50;83.90;;;;;;5075294;28;20563;-63
2023/05/14 12:21:43;;;;;;;4.70;4.30;;;23.60;85.90;;;;;;5071012;28;20473;-63
2023/05/14 12:24:11;;;;;;;4.30;4.00;;;23.50;85.50;;;;;;5089675;28;20492;-63
2023/05/14 12:26:38;;;;;;;6.83;3.53;;;23.60;85.10;;;;;;5086282;28;20526;-63
2023/05/14 12:29:06;;;;;;;3.87;3.57;;;23.60;86.00;;;;;;5059858;27;21806;-63
2023/05/14 12:31:35;;;;;;;4.73;4.33;;;23.70;82.10;;;;;;5110125;27;20463;-63
2023/05/14 12:34:02;;;;;;;6.33;3.70;;;23.70;85.00;;;;;;5102822;27;20473;-63
2023/05/14 12:36:31;;;;;;;3.93;3.60;;;23.70;83.30;;;;;;5091482;28;20482;-63
2023/05/14 12:39:02;;;;;;;3.83;3.43;;;23.70;84.70;;;;;;5093992;27;20479;-64
2023/05/14 12:41:29;;;;;;;3.63;3.30;;;23.70;85.60;;;;;;5084474;28;20474;-64